Time;durP1;ratioP1;P1;durP2;ratioP2;P2;SDS_P1;SDS_P2;PMS_P1;PMS_P2;Temp;Humidity;BMP_temperature;BMP_pressure;BME280_temperature;BME280_humidity;BME280_pressure;Samples;Min_cycle;Max_cycle;Signal;HPM_P1;HPM_P2
2023/12/05 00:02:10;;;;;;;450.73;27.95;;;;;;;;;;8281854;28;20045;-59
2023/12/05 00:06:10;;;;;;;364.27;24.42;;;;;;;;;;8283588;28;20029;-59
2023/12/05 00:10:11;;;;;;;322.40;23.10;;;;;;;;;;8283643;28;20029;-58
2023/12/05 00:14:11;;;;;;;359.30;20.70;;;;;;;;;;8286061;28;20021;-58
2023/12/05 00:18:11;;;;;;;488.13;24.05;;;;;;;;;;8285687;28;20064;-58
2023/12/05 00:22:11;;;;;;;363.98;18.58;;;;;;;;;;8285652;28;20021;-58
2023/12/05 00:26:11;;;;;;;384.20;19.30;;;;;;;;;;8280895;28;20032;-58
2023/12/05 00:30:12;;;;;;;339.45;17.15;;;;;;;;;;8280513;28;20271;-58
2023/12/05 00:34:12;;;;;;;313.88;17.50;;;;;;;;;;8279902;28;20022;-58
2023/12/05 00:38:12;;;;;;;384.77;19.83;;;;;;;;;;8277339;28;20416;-58
2023/12/05 00:42:12;;;;;;;576.95;27.48;;;;;;;;;;8278148;28;20120;-59
2023/12/05 00:46:13;;;;;;;454.48;21.98;;;;;;;;;;8275915;28;20095;-57
2023/12/05 00:50:13;;;;;;;393.38;19.38;;;;;;;;;;8280747;28;20032;-59
2023/12/05 00:54:13;;;;;;;444.00;20.70;;;;;;;;;;8279895;28;20060;-60
2023/12/05 00:58:13;;;;;;;367.13;19.10;;;;;;;;;;8274126;28;20140;-60
2023/12/05 01:02:14;;;;;;;373.92;19.10;;;;;;;;;;8276962;28;20040;-60
2023/12/05 01:06:14;;;;;;;326.92;18.25;;;;;;;;;;8281035;28;20099;-60
2023/12/05 01:10:14;;;;;;;472.40;23.42;;;;;;;;;;8275345;28;20056;-60
2023/12/05 01:14:14;;;;;;;458.77;22.75;;;;;;;;;;8280575;28;20024;-60
2023/12/05 01:18:14;;;;;;;350.85;19.70;;;;;;;;;;8280225;28;20029;-60
2023/12/05 01:22:15;;;;;;;237.73;15.63;;;;;;;;;;8278055;28;20029;-60
2023/12/05 01:26:15;;;;;;;406.83;22.45;;;;;;;;;;8270049;28;20024;-59
2023/12/05 01:30:15;;;;;;;303.65;19.58;;;;;;;;;;8277849;28;20036;-60
2023/12/05 01:34:16;;;;;;;518.25;24.05;;;;;;;;;;8278893;28;20021;-59
2023/12/05 01:38:18;;;;;;;349.45;19.23;;;;;;;;;;8281729;28;20031;-58
2023/12/05 01:42:18;;;;;;;264.85;18.65;;;;;;;;;;8279300;28;20036;-58
2023/12/05 01:46:20;;;;;;;62.80;14.13;;;;;;;;;;8277114;28;21109;-58
2023/12/05 01:50:25;;;;;;;62.15;13.85;;;;;;;;;;8280688;28;20623;-57
2023/12/05 01:54:26;;;;;;;15.80;8.98;;;;;;;;;;8282668;28;20025;-58
2023/12/05 01:58:26;;;;;;;17.20;10.52;;;;;;;;;;8280695;28;20547;-58
2023/12/05 02:02:27;;;;;;;18.80;11.82;;;;;;;;;;8282279;28;20432;-58
2023/12/05 02:06:27;;;;;;;21.23;12.13;;;;;;;;;;8283818;28;20037;-58
2023/12/05 02:10:27;;;;;;;22.90;12.27;;;;;;;;;;8281164;28;20079;-59
2023/12/05 02:14:27;;;;;;;20.90;11.80;;;;;;;;;;8281370;28;20148;-59
2023/12/05 02:18:30;;;;;;;15.82;11.15;;;;;;;;;;8266668;28;20295;-58
2023/12/05 02:22:52;;;;;;;16.15;10.40;;;;;;;;;;8288461;28;20969;-59
2023/12/05 02:27:11;;;;;;;35.80;14.50;;;;;;;;;;8287013;28;20048;-58
2023/12/05 02:31:12;;;;;;;17.50;9.00;;;;;;;;;;8284261;28;20044;-59
2023/12/05 02:35:12;;;;;;;16.00;11.10;;;;;;;;;;8281941;28;20021;-57
2023/12/05 02:39:19;;;;;;;16.88;9.93;;;;;;;;;;8285730;28;20021;-58
2023/12/05 02:43:24;;;;;;;13.40;7.97;;;;;;;;;;8285040;28;20061;-60
2023/12/05 02:47:26;;;;;;;10.30;7.50;;;;;;;;;;8285245;28;20087;-59
2023/12/05 02:51:27;;;;;;;10.13;7.13;;;;;;;;;;8279451;28;20075;-59
2023/12/05 02:55:28;;;;;;;9.73;6.30;;;;;;;;;;8283454;28;20025;-56
2023/12/05 02:59:28;;;;;;;9.48;5.90;;;;;;;;;;8277585;28;20035;-58
2023/12/05 03:03:28;;;;;;;4.72;3.90;;;;;;;;;;8282438;28;20128;-58
2023/12/05 03:07:28;;;;;;;6.40;4.47;;;;;;;;;;8287326;28;20029;-59
2023/12/05 03:11:29;;;;;;;5.45;3.70;;;;;;;;;;8285045;28;20059;-57
2023/12/05 03:15:29;;;;;;;7.03;3.28;;;;;;;;;;8288672;28;20060;-58
2023/12/05 03:19:29;;;;;;;4.22;2.10;;;;;;;;;;8284301;28;20017;-59
2023/12/05 03:23:30;;;;;;;3.15;2.65;;;;;;;;;;8288128;28;20938;-58
2023/12/05 03:27:30;;;;;;;6.72;2.90;;;;;;;;;;8289788;28;20029;-58
2023/12/05 03:31:34;;;;;;;3.67;2.60;;;;;;;;;;8290946;28;20156;-57
2023/12/05 03:35:34;;;;;;;4.40;2.53;;;;;;;;;;8289812;28;20382;-58
2023/12/05 03:39:34;;;;;;;4.45;2.50;;;;;;;;;;8288178;28;20040;-58
2023/12/05 03:43:34;;;;;;;4.72;1.80;;;;;;;;;;8287730;28;20116;-58
2023/12/05 03:47:34;;;;;;;4.80;2.28;;;;;;;;;;8287384;28;20484;-58
2023/12/05 03:51:34;;;;;;;2.67;1.98;;;;;;;;;;8288647;28;20025;-58
2023/12/05 03:55:35;;;;;;;4.65;2.38;;;;;;;;;;8287367;28;20032;-58
2023/12/05 03:59:35;;;;;;;5.40;2.47;;;;;;;;;;8280917;28;20029;-59
2023/12/05 04:03:36;;;;;;;7.38;3.92;;;;;;;;;;8284645;28;20655;-58
2023/12/05 04:07:36;;;;;;;7.53;3.65;;;;;;;;;;8284179;28;20294;-58
2023/12/05 04:11:38;;;;;;;7.05;3.35;;;;;;;;;;8282789;28;20570;-59
2023/12/05 04:15:38;;;;;;;5.55;4.00;;;;;;;;;;8283048;28;20775;-58
2023/12/05 04:19:39;;;;;;;4.55;2.58;;;;;;;;;;8283746;28;20688;-60
2023/12/05 04:23:39;;;;;;;2.85;1.80;;;;;;;;;;8284912;28;20082;-61
2023/12/05 04:27:40;;;;;;;2.83;1.80;;;;;;;;;;8283736;28;20091;-60
2023/12/05 04:31:40;;;;;;;4.72;1.63;;;;;;;;;;8280741;28;20111;-60
2023/12/05 04:35:40;;;;;;;1.90;1.30;;;;;;;;;;8285069;28;20104;-59
2023/12/05 04:39:40;;;;;;;1.63;1.25;;;;;;;;;;8281498;28;20032;-59
2023/12/05 04:43:42;;;;;;;4.82;1.33;;;;;;;;;;8284906;28;21022;-59
2023/12/05 04:47:42;;;;;;;2.92;1.20;;;;;;;;;;8285885;28;20184;-59
2023/12/05 04:51:42;;;;;;;1.85;1.15;;;;;;;;;;8281992;28;20026;-59
2023/12/05 04:55:42;;;;;;;2.35;1.10;;;;;;;;;;8284050;28;20013;-59
2023/12/05 04:59:42;;;;;;;5.77;1.33;;;;;;;;;;8280309;28;20052;-59
2023/12/05 05:03:43;;;;;;;1.90;1.20;;;;;;;;;;8284234;28;20276;-59
2023/12/05 05:07:43;;;;;;;0.90;0.90;;;;;;;;;;8285895;28;20071;-60
2023/12/05 05:11:43;;;;;;;1.65;0.93;;;;;;;;;;8285026;28;20765;-60
2023/12/05 05:15:43;;;;;;;3.58;0.95;;;;;;;;;;8280699;28;20056;-60
2023/12/05 05:19:44;;;;;;;3.17;1.13;;;;;;;;;;8285179;28;20913;-60
2023/12/05 05:23:44;;;;;;;1.17;1.00;;;;;;;;;;8285478;28;20478;-59
2023/12/05 05:27:44;;;;;;;3.33;1.08;;;;;;;;;;8285574;28;21080;-59
2023/12/05 05:31:44;;;;;;;2.08;1.10;;;;;;;;;;8282700;28;20406;-58
2023/12/05 05:35:44;;;;;;;2.03;1.10;;;;;;;;;;8288284;28;20499;-59
2023/12/05 05:39:45;;;;;;;3.58;1.08;;;;;;;;;;8283114;28;20699;-60
2023/12/05 05:43:45;;;;;;;1.13;0.90;;;;;;;;;;8284211;28;20118;-59
2023/12/05 05:47:45;;;;;;;1.45;0.90;;;;;;;;;;8278473;28;20464;-59
2023/12/05 05:51:45;;;;;;;1.57;0.73;;;;;;;;;;8283010;28;20032;-59
2023/12/05 05:55:46;;;;;;;1.10;0.85;;;;;;;;;;8274833;28;20279;-58
2023/12/05 05:59:46;;;;;;;0.87;0.87;;;;;;;;;;8274325;28;20017;-58
2023/12/05 06:03:46;;;;;;;3.33;1.17;;;;;;;;;;8274306;28;21070;-59
2023/12/05 06:07:46;;;;;;;0.68;0.63;;;;;;;;;;8278105;28;20039;-58
2023/12/05 06:11:47;;;;;;;0.80;0.80;;;;;;;;;;8280684;28;20021;-59
2023/12/05 06:15:47;;;;;;;3.50;0.75;;;;;;;;;;8279412;28;21011;-58
2023/12/05 06:19:47;;;;;;;1.50;0.82;;;;;;;;;;8280376;28;20021;-57
2023/12/05 06:23:47;;;;;;;0.70;0.70;;;;;;;;;;8265220;28;20028;-57
2023/12/05 06:27:48;;;;;;;2.25;0.82;;;;;;;;;;8280375;28;20300;-57
2023/12/05 06:31:48;;;;;;;3.50;0.80;;;;;;;;;;8265244;28;20033;-57
2023/12/05 06:35:48;;;;;;;2.13;1.10;;;;;;;;;;8266565;28;20036;-58
2023/12/05 06:39:48;;;;;;;1.05;1.00;;;;;;;;;;8287459;28;20239;-57
2023/12/05 06:43:48;;;;;;;3.25;1.30;;;;;;;;;;8287001;28;20094;-55
2023/12/05 06:47:49;;;;;;;3.03;1.20;;;;;;;;;;8286118;28;20045;-56
2023/12/05 06:51:56;;;;;;;1.30;0.88;;;;;;;;;;8287914;28;20062;-56
2023/12/05 06:55:57;;;;;;;3.00;0.85;;;;;;;;;;8288552;28;20021;-55
2023/12/05 06:59:57;;;;;;;3.50;1.10;;;;;;;;;;8282737;28;20025;-55
2023/12/05 07:03:57;;;;;;;3.70;1.40;;;;;;;;;;8285102;28;20072;-56
2023/12/05 07:07:57;;;;;;;3.92;1.30;;;;;;;;;;8285016;28;20287;-56
2023/12/05 07:11:58;;;;;;;2.53;1.20;;;;;;;;;;8282882;28;20039;-57
2023/12/05 07:15:58;;;;;;;1.67;1.00;;;;;;;;;;8279951;28;20657;-57
2023/12/05 07:19:58;;;;;;;0.80;0.80;;;;;;;;;;8284219;28;20280;-58
2023/12/05 07:23:58;;;;;;;2.80;1.30;;;;;;;;;;8287244;28;20083;-56
2023/12/05 07:27:58;;;;;;;1.48;1.13;;;;;;;;;;8283597;28;20291;-57
2023/12/05 07:31:59;;;;;;;0.80;0.80;;;;;;;;;;8282783;28;20510;-57
2023/12/05 07:36:02;;;;;;;1.13;0.90;;;;;;;;;;8286890;28;20021;-58
2023/12/05 07:40:05;;;;;;;4.88;1.30;;;;;;;;;;8287081;28;21066;-58
2023/12/05 07:44:06;;;;;;;1.45;0.93;;;;;;;;;;8283781;28;20033;-58
2023/12/05 07:48:07;;;;;;;0.93;0.82;;;;;;;;;;8284855;28;20045;-57
2023/12/05 07:52:07;;;;;;;1.55;0.88;;;;;;;;;;8285906;28;20211;-57
2023/12/05 07:56:07;;;;;;;2.50;1.07;;;;;;;;;;8286217;28;20140;-57
2023/12/05 08:00:14;;;;;;;0.90;0.70;;;;;;;;;;8285286;28;20279;-56
2023/12/05 08:04:14;;;;;;;2.28;1.10;;;;;;;;;;8283499;28;20426;-56
2023/12/05 08:08:15;;;;;;;2.40;0.80;;;;;;;;;;8285593;28;20032;-56
2023/12/05 08:12:15;;;;;;;3.05;0.70;;;;;;;;;;8283477;28;20401;-56
2023/12/05 08:16:16;;;;;;;2.13;0.90;;;;;;;;;;8283378;28;20069;-56
2023/12/05 08:20:16;;;;;;;0.70;0.70;;;;;;;;;;8282315;28;20334;-57
2023/12/05 08:24:17;;;;;;;1.55;1.02;;;;;;;;;;8286039;28;20037;-57
2023/12/05 08:28:17;;;;;;;0.60;0.60;;;;;;;;;;8283248;28;20039;-57
2023/12/05 08:32:17;;;;;;;1.27;0.80;;;;;;;;;;8283296;28;20179;-57
2023/12/05 08:36:17;;;;;;;0.50;0.50;;;;;;;;;;8284639;28;20025;-57
2023/12/05 08:40:17;;;;;;;0.52;0.47;;;;;;;;;;8282286;28;20033;-56
2023/12/05 08:44:19;;;;;;;1.80;0.90;;;;;;;;;;8285273;28;20063;-56
2023/12/05 08:48:19;;;;;;;1.40;0.80;;;;;;;;;;8285271;28;20982;-57
2023/12/05 08:52:20;;;;;;;0.90;0.80;;;;;;;;;;8283865;28;20064;-57
2023/12/05 08:56:20;;;;;;;0.70;0.70;;;;;;;;;;8283363;28;20572;-56
2023/12/05 09:00:20;;;;;;;1.60;1.02;;;;;;;;;;8280164;28;20031;-57
2023/12/05 09:04:20;;;;;;;2.90;0.77;;;;;;;;;;8283859;28;20040;-56
2023/12/05 09:08:21;;;;;;;2.65;0.73;;;;;;;;;;8284916;28;20048;-57
2023/12/05 09:12:22;;;;;;;0.75;0.75;;;;;;;;;;8279495;28;20032;-56
2023/12/05 09:16:23;;;;;;;0.65;0.65;;;;;;;;;;8284671;28;20037;-55
2023/12/05 09:20:23;;;;;;;0.75;0.75;;;;;;;;;;8281562;28;20029;-57
2023/12/05 09:24:23;;;;;;;1.63;0.90;;;;;;;;;;8282728;28;20130;-56
2023/12/05 09:28:24;;;;;;;0.98;0.75;;;;;;;;;;8284355;28;20530;-54
2023/12/05 09:32:24;;;;;;;4.03;1.30;;;;;;;;;;8281801;28;20040;-57
2023/12/05 09:36:24;;;;;;;1.45;1.00;;;;;;;;;;8281405;28;21052;-56
2023/12/05 09:40:24;;;;;;;0.88;0.80;;;;;;;;;;8262923;28;20037;-55
2023/12/05 09:44:25;;;;;;;0.68;0.68;;;;;;;;;;8286109;28;20473;-54
2023/12/05 09:48:26;;;;;;;1.27;0.70;;;;;;;;;;8284085;28;20052;-56
2023/12/05 09:52:28;;;;;;;0.65;0.60;;;;;;;;;;8284464;28;20039;-56
2023/12/05 09:56:28;;;;;;;2.63;0.70;;;;;;;;;;8283394;28;20021;-57
2023/12/05 10:00:28;;;;;;;0.60;0.60;;;;;;;;;;8281496;28;20088;-56
2023/12/05 10:04:31;;;;;;;1.42;0.80;;;;;;;;;;8285713;28;20031;-57
2023/12/05 10:08:31;;;;;;;0.50;0.50;;;;;;;;;;8282084;28;20506;-56
2023/12/05 10:12:32;;;;;;;1.58;0.60;;;;;;;;;;8282293;28;20676;-55
2023/12/05 10:16:33;;;;;;;0.65;0.65;;;;;;;;;;8282526;28;20041;-56
2023/12/05 10:20:33;;;;;;;2.75;0.70;;;;;;;;;;8277136;28;20140;-57
2023/12/05 10:24:43;;;;;;;0.55;0.55;;;;;;;;;;8281967;28;20760;-56
2023/12/05 10:28:54;;;;;;;1.13;0.70;;;;;;;;;;8278349;28;20029;-56
2023/12/05 10:32:58;;;;;;;0.50;0.50;;;;;;;;;;8280505;28;20034;-56
2023/12/05 10:37:03;;;;;;;1.80;0.68;;;;;;;;;;8277990;28;20033;-56
2023/12/05 10:41:03;;;;;;;0.60;0.60;;;;;;;;;;8275637;28;20779;-56
2023/12/05 10:45:04;;;;;;;3.13;0.60;;;;;;;;;;8261140;28;22677;-55
2023/12/05 10:49:05;;;;;;;1.17;0.60;;;;;;;;;;8278524;28;20056;-55
2023/12/05 10:53:06;;;;;;;0.93;0.70;;;;;;;;;;8279353;28;20033;-56
2023/12/05 10:57:09;;;;;;;1.67;0.70;;;;;;;;;;8277403;28;20068;-56
2023/12/05 11:01:10;;;;;;;2.83;0.70;;;;;;;;;;8281565;28;20057;-57
2023/12/05 11:05:12;;;;;;;0.60;0.60;;;;;;;;;;8279131;28;20035;-56
2023/12/05 11:09:12;;;;;;;1.92;0.70;;;;;;;;;;8279006;28;20029;-57
2023/12/05 11:13:13;;;;;;;1.95;0.80;;;;;;;;;;8282736;28;20041;-56
2023/12/05 11:17:26;;;;;;;0.95;0.60;;;;;;;;;;8279995;28;20164;-57
2023/12/05 11:21:34;;;;;;;0.63;0.60;;;;;;;;;;8278448;28;20029;-57
2023/12/05 11:25:41;;;;;;;0.85;0.70;;;;;;;;;;8282380;28;20039;-55
2023/12/05 11:30:00;;;;;;;1.27;0.70;;;;;;;;;;8283435;28;20053;-56
2023/12/05 11:34:06;;;;;;;1.25;0.80;;;;;;;;;;8285723;28;20037;-55
2023/12/05 11:38:14;;;;;;;0.68;0.60;;;;;;;;;;8284896;28;20033;-56
2023/12/05 11:42:14;;;;;;;3.75;0.75;;;;;;;;;;8286532;28;20025;-56
2023/12/05 11:46:16;;;;;;;0.70;0.70;;;;;;;;;;8282661;28;20033;-56
2023/12/05 11:50:16;;;;;;;0.77;0.65;;;;;;;;;;8284921;28;20025;-56
2023/12/05 11:54:16;;;;;;;1.15;0.73;;;;;;;;;;8286094;28;20116;-56
2023/12/05 11:58:30;;;;;;;0.60;0.60;;;;;;;;;;8282724;28;20021;-56
2023/12/05 12:02:30;;;;;;;1.03;0.70;;;;;;;;;;8280710;28;20040;-56
2023/12/05 12:06:31;;;;;;;1.27;0.70;;;;;;;;;;8279190;28;20276;-56
2023/12/05 12:10:32;;;;;;;1.35;0.68;;;;;;;;;;8283465;28;20783;-57
2023/12/05 12:14:32;;;;;;;0.60;0.60;;;;;;;;;;8285377;28;20056;-57
2023/12/05 12:18:33;;;;;;;0.63;0.60;;;;;;;;;;8284080;28;20093;-57
2023/12/05 12:22:33;;;;;;;0.82;0.73;;;;;;;;;;8282187;28;20274;-57
2023/12/05 12:26:33;;;;;;;0.50;0.50;;;;;;;;;;8285210;28;20040;-57
2023/12/05 12:30:34;;;;;;;0.40;0.40;;;;;;;;;;8283149;28;20045;-57
2023/12/05 12:34:34;;;;;;;0.50;0.50;;;;;;;;;;8283356;28;20033;-58
2023/12/05 12:38:36;;;;;;;0.40;0.40;;;;;;;;;;8284706;28;20033;-57
2023/12/05 12:42:36;;;;;;;0.40;0.40;;;;;;;;;;8284164;28;20028;-57
2023/12/05 12:46:39;;;;;;;0.80;0.80;;;;;;;;;;8287258;28;20048;-57
2023/12/05 12:50:41;;;;;;;0.50;0.50;;;;;;;;;;8282842;28;20032;-57
2023/12/05 12:54:43;;;;;;;0.40;0.40;;;;;;;;;;8281712;28;20106;-57
2023/12/05 12:58:44;;;;;;;0.40;0.40;;;;;;;;;;8288478;28;20445;-57
2023/12/05 13:02:45;;;;;;;0.40;0.40;;;;;;;;;;8286801;28;20038;-57
2023/12/05 13:06:45;;;;;;;0.40;0.40;;;;;;;;;;8288191;28;20032;-56
2023/12/05 13:10:46;;;;;;;0.30;0.30;;;;;;;;;;8286581;28;20136;-57
2023/12/05 13:14:49;;;;;;;0.77;0.30;;;;;;;;;;8282586;28;20021;-57
2023/12/05 13:18:50;;;;;;;0.40;0.40;;;;;;;;;;8280062;28;20111;-56
2023/12/05 13:22:50;;;;;;;0.65;0.40;;;;;;;;;;8280219;28;20822;-57
2023/12/05 13:26:51;;;;;;;0.30;0.30;;;;;;;;;;8276957;28;20155;-57
2023/12/05 13:30:51;;;;;;;0.38;0.38;;;;;;;;;;8279280;28;20802;-56
2023/12/05 13:34:52;;;;;;;0.40;0.40;;;;;;;;;;8280434;28;20076;-57
2023/12/05 13:38:53;;;;;;;0.30;0.30;;;;;;;;;;8277519;28;20128;-56
2023/12/05 13:42:53;;;;;;;0.40;0.40;;;;;;;;;;8278845;28;20029;-57
2023/12/05 13:46:53;;;;;;;0.30;0.30;;;;;;;;;;8277027;28;20037;-56
2023/12/05 13:50:54;;;;;;;0.35;0.30;;;;;;;;;;8277760;28;20271;-56
2023/12/05 13:54:54;;;;;;;0.30;0.30;;;;;;;;;;8279634;28;20026;-57
2023/12/05 13:58:55;;;;;;;0.30;0.30;;;;;;;;;;8278791;28;21307;-57
2023/12/05 14:02:55;;;;;;;0.30;0.30;;;;;;;;;;8276139;28;20044;-57
2023/12/05 14:06:56;;;;;;;0.40;0.40;;;;;;;;;;8279435;28;20449;-56
2023/12/05 14:10:56;;;;;;;0.40;0.40;;;;;;;;;;8278416;28;20842;-57
2023/12/05 14:14:57;;;;;;;0.63;0.63;;;;;;;;;;8278435;28;20028;-56
2023/12/05 14:18:57;;;;;;;0.40;0.40;;;;;;;;;;8275808;28;21224;-57
2023/12/05 14:22:57;;;;;;;0.63;0.50;;;;;;;;;;8275437;28;20482;-57
2023/12/05 14:26:57;;;;;;;0.40;0.40;;;;;;;;;;8278104;28;20072;-57
2023/12/05 14:30:58;;;;;;;0.47;0.47;;;;;;;;;;8276527;28;20084;-57
2023/12/05 14:34:59;;;;;;;0.43;0.43;;;;;;;;;;8273850;28;20022;-57
2023/12/05 14:38:59;;;;;;;0.40;0.40;;;;;;;;;;8274281;28;20144;-56
2023/12/05 14:42:59;;;;;;;0.45;0.40;;;;;;;;;;8278736;28;20617;-56
2023/12/05 14:47:02;;;;;;;0.40;0.40;;;;;;;;;;8277065;28;20048;-56
2023/12/05 14:51:03;;;;;;;0.40;0.40;;;;;;;;;;8280302;28;20040;-55
2023/12/05 14:55:03;;;;;;;0.40;0.40;;;;;;;;;;8282554;28;20894;-55
2023/12/05 14:59:04;;;;;;;0.40;0.40;;;;;;;;;;8284879;28;20220;-57
2023/12/05 15:03:04;;;;;;;0.30;0.30;;;;;;;;;;8282147;28;20083;-54
2023/12/05 15:07:04;;;;;;;0.38;0.38;;;;;;;;;;8285312;28;20036;-55
2023/12/05 15:11:05;;;;;;;0.40;0.40;;;;;;;;;;8282620;28;21398;-55
2023/12/05 15:15:06;;;;;;;0.30;0.30;;;;;;;;;;8283557;28;21614;-56
2023/12/05 15:19:07;;;;;;;0.40;0.40;;;;;;;;;;8285977;28;20037;-57
2023/12/05 15:23:07;;;;;;;0.30;0.30;;;;;;;;;;8284130;28;20032;-56
2023/12/05 15:27:07;;;;;;;0.40;0.40;;;;;;;;;;8279258;28;20079;-57
2023/12/05 15:31:07;;;;;;;0.30;0.30;;;;;;;;;;8283857;28;20468;-56
2023/12/05 15:35:08;;;;;;;0.40;0.40;;;;;;;;;;8276816;28;20114;-59
2023/12/05 15:39:08;;;;;;;0.38;0.38;;;;;;;;;;8268464;28;20401;-57
2023/12/05 15:43:08;;;;;;;0.30;0.30;;;;;;;;;;8281134;28;20520;-57
2023/12/05 15:47:09;;;;;;;0.30;0.30;;;;;;;;;;8279161;28;20041;-57
2023/12/05 15:51:09;;;;;;;0.30;0.30;;;;;;;;;;8281771;28;20063;-57
2023/12/05 15:55:09;;;;;;;0.30;0.30;;;;;;;;;;8281543;28;20041;-57
2023/12/05 15:59:10;;;;;;;0.38;0.38;;;;;;;;;;8280164;28;20033;-57
2023/12/05 16:03:10;;;;;;;0.30;0.30;;;;;;;;;;8275255;28;20504;-57
2023/12/05 16:07:11;;;;;;;0.40;0.40;;;;;;;;;;8280408;28;20096;-58
2023/12/05 16:11:15;;;;;;;1.17;0.93;;;;;;;;;;8282298;28;20275;-58
2023/12/05 16:15:15;;;;;;;0.50;0.50;;;;;;;;;;8282235;28;20022;-57
2023/12/05 16:19:15;;;;;;;0.50;0.50;;;;;;;;;;8287923;28;20078;-57
2023/12/05 16:23:15;;;;;;;0.65;0.65;;;;;;;;;;8292220;28;20112;-58
2023/12/05 16:27:16;;;;;;;0.60;0.60;;;;;;;;;;8291249;28;20152;-56
2023/12/05 16:31:16;;;;;;;1.10;1.00;;;;;;;;;;8278758;28;20028;-58
2023/12/05 16:35:17;;;;;;;0.90;0.90;;;;;;;;;;8281157;28;20021;-57
2023/12/05 16:39:17;;;;;;;0.47;0.47;;;;;;;;;;8275658;28;20931;-57
2023/12/05 16:43:17;;;;;;;0.55;0.55;;;;;;;;;;8278007;28;20029;-55
2023/12/05 16:47:17;;;;;;;0.50;0.50;;;;;;;;;;8282876;28;20048;-56
2023/12/05 16:51:18;;;;;;;0.47;0.47;;;;;;;;;;8282050;28;20068;-56
2023/12/05 16:55:18;;;;;;;0.60;0.60;;;;;;;;;;8280572;28;20063;-56
2023/12/05 16:59:18;;;;;;;0.60;0.60;;;;;;;;;;8279197;28;20025;-56
2023/12/05 17:03:20;;;;;;;0.60;0.60;;;;;;;;;;8279803;28;20571;-56
2023/12/05 17:07:20;;;;;;;0.45;0.45;;;;;;;;;;8280850;28;20021;-56
2023/12/05 17:11:20;;;;;;;2.38;1.60;;;;;;;;;;8284606;28;20047;-57
2023/12/05 17:15:20;;;;;;;1.25;1.15;;;;;;;;;;8284019;28;20021;-56
2023/12/05 17:19:20;;;;;;;0.60;0.60;;;;;;;;;;8283384;28;20029;-56
2023/12/05 17:23:21;;;;;;;0.63;0.63;;;;;;;;;;8275976;28;20029;-56
2023/12/05 17:27:21;;;;;;;0.50;0.50;;;;;;;;;;8278387;28;20878;-56
2023/12/05 17:31:21;;;;;;;0.65;0.65;;;;;;;;;;8280675;28;20280;-55
2023/12/05 17:35:21;;;;;;;0.50;0.50;;;;;;;;;;8280870;28;20036;-56
2023/12/05 17:39:22;;;;;;;0.60;0.60;;;;;;;;;;8282608;28;20033;-57
2023/12/05 17:43:24;;;;;;;0.43;0.43;;;;;;;;;;8280707;28;20961;-56
2023/12/05 17:47:24;;;;;;;0.70;0.70;;;;;;;;;;8277572;28;20033;-56
2023/12/05 17:51:24;;;;;;;0.67;0.67;;;;;;;;;;8279272;28;20563;-56
2023/12/05 17:55:24;;;;;;;0.68;0.68;;;;;;;;;;8273389;28;21745;-56
2023/12/05 17:59:25;;;;;;;0.80;0.80;;;;;;;;;;8276038;28;20025;-55
2023/12/05 18:03:26;;;;;;;1.17;1.08;;;;;;;;;;8274295;28;20079;-56
2023/12/05 18:07:26;;;;;;;0.90;0.77;;;;;;;;;;8278191;28;20079;-55
2023/12/05 18:11:28;;;;;;;1.80;1.30;;;;;;;;;;8274807;28;20860;-56
2023/12/05 18:15:29;;;;;;;0.75;0.75;;;;;;;;;;8274722;28;20386;-57
2023/12/05 18:19:29;;;;;;;1.00;1.00;;;;;;;;;;8274129;28;20886;-56
2023/12/05 18:23:31;;;;;;;1.00;1.00;;;;;;;;;;8275913;28;20027;-55
2023/12/05 18:27:32;;;;;;;0.95;0.95;;;;;;;;;;8276961;28;20763;-57
2023/12/05 18:31:33;;;;;;;1.17;0.98;;;;;;;;;;8276922;28;20067;-57
2023/12/05 18:35:33;;;;;;;1.00;1.00;;;;;;;;;;8282917;28;20763;-57
2023/12/05 18:39:33;;;;;;;1.20;1.00;;;;;;;;;;8283871;28;20079;-56
2023/12/05 18:43:34;;;;;;;0.80;0.80;;;;;;;;;;8283352;28;20279;-57
2023/12/05 18:47:35;;;;;;;0.88;0.88;;;;;;;;;;8282455;28;20050;-56
2023/12/05 18:51:35;;;;;;;0.95;0.95;;;;;;;;;;8279678;28;20138;-57
2023/12/05 18:55:35;;;;;;;0.70;0.70;;;;;;;;;;8283471;28;20060;-56
2023/12/05 18:59:35;;;;;;;3.17;0.77;;;;;;;;;;8281898;28;20018;-57
2023/12/05 19:03:36;;;;;;;0.90;0.90;;;;;;;;;;8281399;28;20037;-55
2023/12/05 19:07:36;;;;;;;0.80;0.80;;;;;;;;;;8280540;28;20181;-56
2023/12/05 19:11:36;;;;;;;1.33;1.00;;;;;;;;;;8279636;28;20024;-55
2023/12/05 19:15:37;;;;;;;1.00;0.90;;;;;;;;;;8280282;28;20041;-56
2023/12/05 19:19:37;;;;;;;0.70;0.70;;;;;;;;;;8273302;28;20021;-56
2023/12/05 19:23:37;;;;;;;2.30;1.20;;;;;;;;;;8282880;28;20027;-56
2023/12/05 19:27:39;;;;;;;0.90;0.90;;;;;;;;;;8277524;28;20063;-56
2023/12/05 19:31:39;;;;;;;0.85;0.85;;;;;;;;;;8279339;28;20776;-56
2023/12/05 19:35:39;;;;;;;0.90;0.90;;;;;;;;;;8282811;28;20071;-52
2023/12/05 19:39:40;;;;;;;0.98;0.98;;;;;;;;;;8279901;28;20457;-57
2023/12/05 19:43:40;;;;;;;0.80;0.80;;;;;;;;;;8278784;28;20031;-57
2023/12/05 19:47:40;;;;;;;0.80;0.80;;;;;;;;;;8280220;28;20037;-57
2023/12/05 19:51:41;;;;;;;1.48;0.93;;;;;;;;;;8281028;28;20056;-57
2023/12/05 19:55:47;;;;;;;1.73;1.00;;;;;;;;;;8281909;28;20888;-55
2023/12/05 19:59:48;;;;;;;0.90;0.90;;;;;;;;;;8282481;28;20083;-56
2023/12/05 20:03:48;;;;;;;0.98;0.98;;;;;;;;;;8276678;28;20099;-57
2023/12/05 20:07:48;;;;;;;0.95;0.93;;;;;;;;;;8262701;28;20021;-55
2023/12/05 20:11:48;;;;;;;0.77;0.77;;;;;;;;;;8279269;28;20024;-56
2023/12/05 20:15:49;;;;;;;0.80;0.80;;;;;;;;;;8277359;28;20041;-56
2023/12/05 20:19:49;;;;;;;0.75;0.75;;;;;;;;;;8279008;28;20121;-55
2023/12/05 20:23:50;;;;;;;0.85;0.85;;;;;;;;;;8281223;28;20032;-55
2023/12/05 20:27:50;;;;;;;0.82;0.82;;;;;;;;;;8283066;28;20052;-57
2023/12/05 20:31:50;;;;;;;1.42;1.30;;;;;;;;;;8276314;28;20099;-56
2023/12/05 20:35:51;;;;;;;1.00;1.00;;;;;;;;;;8277644;28;21141;-55
2023/12/05 20:39:51;;;;;;;1.20;1.10;;;;;;;;;;8273471;28;20087;-57
2023/12/05 20:43:51;;;;;;;1.35;1.25;;;;;;;;;;8278451;28;20035;-56
2023/12/05 20:47:51;;;;;;;1.23;1.13;;;;;;;;;;8277249;28;20042;-57
2023/12/05 20:51:51;;;;;;;1.13;1.10;;;;;;;;;;8273782;28;20535;-57
2023/12/05 20:55:55;;;;;;;1.47;1.37;;;;;;;;;;8277474;28;20025;-56
2023/12/05 20:59:55;;;;;;;1.53;1.43;;;;;;;;;;8278597;28;20056;-56
2023/12/05 21:03:55;;;;;;;1.00;1.00;;;;;;;;;;8276820;28;20067;-55
2023/12/05 21:07:55;;;;;;;1.30;1.30;;;;;;;;;;8278605;28;20021;-56
2023/12/05 21:11:55;;;;;;;1.13;1.13;;;;;;;;;;8278663;28;20025;-56
2023/12/05 21:15:56;;;;;;;1.30;1.20;;;;;;;;;;8274288;28;20048;-56
2023/12/05 21:19:56;;;;;;;1.60;1.50;;;;;;;;;;8274985;28;20102;-56
2023/12/05 21:23:56;;;;;;;2.05;1.42;;;;;;;;;;8275773;28;20916;-57
2023/12/05 21:27:56;;;;;;;1.10;1.10;;;;;;;;;;8281438;28;20025;-56
2023/12/05 21:31:57;;;;;;;1.30;1.20;;;;;;;;;;8275993;28;20299;-56
2023/12/05 21:35:57;;;;;;;1.63;1.52;;;;;;;;;;8274678;28;20029;-54
2023/12/05 21:39:57;;;;;;;1.35;1.25;;;;;;;;;;8276348;28;20017;-56
2023/12/05 21:43:57;;;;;;;1.55;1.40;;;;;;;;;;8273643;28;20021;-56
2023/12/05 21:47:58;;;;;;;1.60;1.50;;;;;;;;;;8275735;28;20056;-56
2023/12/05 21:51:58;;;;;;;1.90;1.35;;;;;;;;;;8272780;28;20522;-56
2023/12/05 21:55:59;;;;;;;1.58;1.48;;;;;;;;;;8276553;28;20106;-56
2023/12/05 21:59:59;;;;;;;1.63;1.45;;;;;;;;;;8273238;28;20983;-56
2023/12/05 22:04:00;;;;;;;1.50;1.40;;;;;;;;;;8272669;28;20127;-56
2023/12/05 22:08:00;;;;;;;1.00;1.00;;;;;;;;;;8273500;28;20024;-57
2023/12/05 22:12:00;;;;;;;3.70;1.23;;;;;;;;;;8272229;28;20694;-55
2023/12/05 22:16:01;;;;;;;1.27;1.10;;;;;;;;;;8274999;28;20033;-56
2023/12/05 22:20:01;;;;;;;1.35;1.00;;;;;;;;;;8274338;28;20078;-56
2023/12/05 22:24:01;;;;;;;1.05;1.05;;;;;;;;;;8275503;28;20031;-56
2023/12/05 22:28:01;;;;;;;1.00;1.00;;;;;;;;;;8274861;28;20032;-57
2023/12/05 22:32:03;;;;;;;1.00;1.00;;;;;;;;;;8274069;28;20100;-55
2023/12/05 22:36:03;;;;;;;1.35;1.25;;;;;;;;;;8262623;28;20026;-57
2023/12/05 22:40:04;;;;;;;1.10;1.10;;;;;;;;;;8271675;28;20021;-56
2023/12/05 22:44:04;;;;;;;1.20;1.10;;;;;;;;;;8273818;28;20064;-56
2023/12/05 22:48:04;;;;;;;2.00;1.20;;;;;;;;;;8274747;28;20044;-55
2023/12/05 22:52:04;;;;;;;1.50;1.40;;;;;;;;;;8268736;28;20437;-56
2023/12/05 22:56:05;;;;;;;1.48;1.30;;;;;;;;;;8275570;28;20047;-57
2023/12/05 23:00:06;;;;;;;1.50;1.40;;;;;;;;;;8273177;28;20059;-57
2023/12/05 23:04:07;;;;;;;1.50;1.40;;;;;;;;;;8271025;28;22134;-56
2023/12/05 23:08:07;;;;;;;1.60;1.50;;;;;;;;;;8271332;28;20464;-56
2023/12/05 23:12:08;;;;;;;1.75;1.45;;;;;;;;;;8261009;28;20076;-56
2023/12/05 23:16:08;;;;;;;1.30;1.30;;;;;;;;;;8270746;28;20045;-56
2023/12/05 23:20:11;;;;;;;1.50;1.40;;;;;;;;;;8268227;28;20580;-54
2023/12/05 23:24:11;;;;;;;1.60;1.50;;;;;;;;;;8275167;28;20027;-56
2023/12/05 23:28:11;;;;;;;1.55;1.45;;;;;;;;;;8276841;28;20152;-57
2023/12/05 23:32:11;;;;;;;1.90;1.67;;;;;;;;;;8276329;28;20155;-57
2023/12/05 23:36:13;;;;;;;1.67;1.58;;;;;;;;;;8279906;28;20029;-57
2023/12/05 23:40:13;;;;;;;2.03;1.67;;;;;;;;;;8277534;28;20023;-56
2023/12/05 23:44:17;;;;;;;2.00;1.90;;;;;;;;;;8276893;28;20033;-57
2023/12/05 23:48:17;;;;;;;1.75;1.65;;;;;;;;;;8278474;28;20287;-57
2023/12/05 23:52:17;;;;;;;2.30;2.10;;;;;;;;;;8278398;28;20013;-56
2023/12/05 23:56:18;;;;;;;2.13;2.00;;;;;;;;;;8282796;28;20022;-58
